首页
METAR-TAF:

METAR-TAF

机场 :

多倫多皮爾遜國際機場

多伦多, 安大略省, 加拿大

纬度: 43-40N, 经度: 079-38W, 海拔: 173米

当前天气观测

该预报发布于1小时和10分钟前的01:00 UTC
风速2节,风向多变
温度 11°C
湿度 35%
气压 1017 hPa
能見度: 24.1公里
少量云层高于6500英尺
多云层高于8500英尺
多云层高于13000英尺

METAR: CYYZ 070100Z VRB02KT 15SM FEW065 BKN085 BKN130 11/M04 A3002 RMK SC2AC3AC2 SLP170

时间: 22:10 (02:10 UTC)

预报

该预报发布于2小时和27分钟前的23:43 UTC
预报有效从07日的 00点(UTC)到 08日的 06点(UTC)
风速8节,风向北转西北,有时为18节阵风
能見度: 10公里
阴天层高于8000英尺
成为
从 07日的 01点(UTC)到 07日的 03点(UTC)
风速8节,风向
从 07日的 0500点(UTC)
风速7节,风向北转东北
能見度: 10公里
多云层高于10000英尺
从 07日的 1100点(UTC)
风速8节,风向
能見度: 10公里
少量云层高于10000英尺
成为
从 07日的 14点(UTC)到 07日的 16点(UTC)
风速10节,风向东南
从 07日的 2000点(UTC)
风速10节,风向东南
能見度: 10公里
阴天层高于6000英尺
从 07日的 2200点(UTC)
风速10节,风向东南
能見度: 10公里
阴天层高于3000英尺
小阵雨
成为
从 07日的 22点(UTC)到 07日的 24点(UTC)
风速12节,风向东转东北
从 08日的 0100点(UTC)
风速12节,风向
能見度: 3.2公里
多云层高于500英尺
阴天层高于1500英尺
小阵雨, 轻雾
从 08日的 0500点(UTC)
风速12节,风向
能見度: 1.6公里
阴天层高于400英尺
小毛毛雨, 轻雾

TAF: CYYZ 062343Z 0700/0806 33008G18KT P6SM OVC080 BECMG 0701/0703 35008KT FM070500 02007KT P6SM BKN100 FM071100 01008KT P6SM FEW100 BECMG 0714/0716 13010KT FM072000 13010KT P6SM OVC060 FM072200 13010KT P6SM -SHRA OVC030 BECMG 0722/0724 07012KT FM080100 10012KT 2SM -SHRA BR BKN005 OVC015 FM080500 10012KT 1SM -DZ BR OVC004 RMK NXT FCST BY 070300Z

超过4000个机场的气象观测和天气预报(METAR&TAF报告)。

可查询的气象台以黄色和红色小点在地图上表示。

将鼠标移到小点上方,可查看气象台名称。

然后点击查看天气观测和预报。

如需切换地图:点击带黑十字的绿色按钮放大地图;点击带横线的绿色按钮缩小地图;或者点击绿色箭头查看邻近地区的地图。


METAR-TAF: